Time;durP1;ratioP1;P1;durP2;ratioP2;P2;SDS_P1;SDS_P2;PMS_P1;PMS_P2;Temp;Humidity;BMP_temperature;BMP_pressure;BME280_temperature;BME280_humidity;BME280_pressure;Samples;Min_cycle;Max_cycle;Signal;HPM_P1;HPM_P2
2023/07/18 00:01:38;;;;;;;;;4.00;2.00;;;;;22.17;42.86;101608.47;5074311;27;45263;-62
2023/07/18 00:04:05;;;;;;;;;4.00;3.00;;;;;22.36;43.15;101645.53;5071283;28;51305;-63
2023/07/18 00:06:31;;;;;;;;;2.67;2.00;;;;;22.33;42.97;101640.13;5070840;28;45396;-62
2023/07/18 00:08:56;;;;;;;;;4.00;1.00;;;;;22.35;42.93;101642.84;5072837;28;45483;-62
2023/07/18 00:11:22;;;;;;;;;1.00;1.00;;;;;22.32;43.02;101648.28;5074907;28;51573;-61
2023/07/18 00:13:47;;;;;;;;;2.33;1.67;;;;;22.20;43.20;101630.22;5070856;28;45526;-62
2023/07/18 00:16:12;;;;;;;;;2.00;2.00;;;;;22.26;43.23;101641.97;5071399;28;45470;-63
2023/07/18 00:18:38;;;;;;;;;1.00;1.00;;;;;22.29;43.14;101646.53;5069489;28;48433;-63
2023/07/18 00:21:05;;;;;;;;;2.00;2.00;;;;;22.26;43.15;101633.78;5047399;28;45533;-62
2023/07/18 00:23:30;;;;;;;;;4.00;2.00;;;;;22.27;43.15;101637.41;5073590;28;46412;-62
2023/07/18 00:25:56;;;;;;;;;2.00;1.00;;;;;22.26;43.13;101647.41;5074646;28;45848;-71
2023/07/18 00:28:21;;;;;;;;;3.67;2.67;;;;;22.26;43.36;101639.22;5074943;28;45342;-66
2023/07/18 00:30:47;;;;;;;;;2.00;1.67;;;;;22.26;43.07;101639.22;5074253;28;45445;-62
2023/07/18 00:33:12;;;;;;;;;3.00;1.33;;;;;22.26;43.14;101631.06;5074691;28;46342;-66
2023/07/18 00:35:38;;;;;;;;;5.00;2.00;;;;;22.23;43.13;101638.34;5074355;28;45526;-70
2023/07/18 00:38:03;;;;;;;;;4.67;2.33;;;;;22.07;43.44;101610.34;5071282;28;45447;-70
2023/07/18 00:40:29;;;;;;;;;4.33;1.00;;;;;22.11;43.37;101613.94;5073689;28;45492;-63
2023/07/18 00:42:54;;;;;;;;;2.00;2.00;;;;;22.15;43.35;101618.47;5074818;28;46278;-63
2023/07/18 00:45:20;;;;;;;;;2.67;2.67;;;;;22.19;43.23;101623.88;5074208;28;45522;-70
2023/07/18 00:47:46;;;;;;;;;7.33;5.00;;;;;22.17;43.49;101619.34;5074711;28;45627;-66
2023/07/18 00:50:18;;;;;;;;;8.00;3.33;;;;;22.10;43.18;101613.03;5074501;28;45469;-71
2023/07/18 00:52:52;;;;;;;;;2.00;1.00;;;;;22.11;43.46;101631.19;5055331;28;48415;-62
2023/07/18 00:55:18;;;;;;;;;2.00;2.00;;;;;22.12;43.05;101621.19;5070675;28;45442;-64
2023/07/18 00:57:45;;;;;;;;;1.00;1.00;;;;;22.06;43.43;101616.72;5071950;28;45451;-62
2023/07/18 01:00:11;;;;;;;;;3.00;1.33;;;;;22.05;43.43;101618.50;5076383;28;45550;-71
2023/07/18 01:02:38;;;;;;;;;3.00;3.00;;;;;21.88;43.20;101598.72;5075717;28;46685;-61
2023/07/18 01:05:04;;;;;;;;;4.00;1.00;;;;;21.97;43.69;101612.22;5074217;28;45584;-66
2023/07/18 01:07:29;;;;;;;;;2.67;1.00;;;;;21.93;43.77;101612.25;5056076;28;45461;-62
2023/07/18 01:10:13;;;;;;;;;1.00;1.00;;;;;21.65;43.43;101564.41;5075576;28;45553;-63
2023/07/18 01:12:38;;;;;;;;;2.00;2.00;;;;;21.87;43.76;101614.09;5073482;28;46481;-65
2023/07/18 01:15:03;;;;;;;;;1.00;1.00;;;;;21.81;43.60;101602.34;5074297;28;45307;-62
2023/07/18 01:17:30;;;;;;;;;2.00;2.00;;;;;21.83;43.74;101612.34;5066804;28;45313;-63
2023/07/18 01:19:56;;;;;;;;;3.00;1.00;;;;;21.82;43.56;101605.06;5056022;28;45573;-67
2023/07/18 01:22:21;;;;;;;;;3.00;1.33;;;;;21.68;43.53;101577.09;5055233;28;47185;-64
2023/07/18 01:24:46;;;;;;;;;2.00;1.00;;;;;21.81;43.37;101603.28;5073754;28;45791;-62
2023/07/18 01:27:12;;;;;;;;;4.00;1.00;;;;;21.79;43.46;101599.66;5074424;28;45576;-63
2023/07/18 01:29:37;;;;;;;;;3.00;2.33;;;;;21.78;43.15;101603.31;5068711;28;45486;-67
2023/07/18 01:32:03;;;;;;;;;3.00;1.00;;;;;21.72;43.56;101604.22;5073334;28;45494;-63
2023/07/18 01:34:28;;;;;;;;;0.67;0.67;;;;;21.70;43.53;101599.72;5073893;28;45388;-64
2023/07/18 01:36:54;;;;;;;;;0.67;0.67;;;;;21.64;43.43;101597.03;5073887;28;45584;-66
2023/07/18 01:39:19;;;;;;;;;2.33;1.00;;;;;21.59;43.20;101597.06;5055573;28;45528;-69
2023/07/18 01:41:45;;;;;;;;;1.00;1.00;;;;;21.63;43.54;101606.09;5072050;28;46487;-65
2023/07/18 01:44:10;;;;;;;;;2.00;2.00;;;;;21.27;43.55;101549.16;5069699;28;45342;-68
2023/07/18 01:46:35;;;;;;;;;1.33;1.00;;;;;21.57;43.52;101607.03;5069295;28;45557;-63
2023/07/18 01:49:01;;;;;;;;;0.67;0.67;;;;;21.53;43.57;101602.53;5071955;28;45481;-63
2023/07/18 01:51:26;;;;;;;;;2.00;2.00;;;;;21.26;43.51;101543.75;5071649;28;47006;-62
2023/07/18 01:53:52;;;;;;;;;1.67;1.67;;;;;21.51;43.59;101596.19;5072507;28;45421;-62
2023/07/18 01:56:17;;;;;;;;;1.00;1.00;;;;;21.47;43.50;101591.66;5072762;28;45695;-66
2023/07/18 01:58:43;;;;;;;;;1.33;1.00;;;;;21.33;43.72;101579.06;5073124;28;45501;-62
2023/07/18 02:01:09;;;;;;;;;1.00;1.00;;;;;21.37;43.89;101573.59;5053170;28;48295;-62
2023/07/18 02:03:35;;;;;;;;;0.67;0.67;;;;;21.40;44.02;101582.63;5071511;28;45384;-61
2023/07/18 02:06:01;;;;;;;;;1.00;1.00;;;;;21.42;43.50;101579.91;5064729;28;45396;-62
2023/07/18 02:08:26;;;;;;;;;2.33;1.00;;;;;21.31;43.58;101564.53;5073008;28;45724;-62
2023/07/18 02:10:52;;;;;;;;;3.00;1.00;;;;;21.38;44.11;101578.09;5073517;28;47778;-64
2023/07/18 02:13:17;;;;;;;;;1.00;1.00;;;;;21.38;43.63;101578.09;5067664;28;45527;-62
2023/07/18 02:15:43;;;;;;;;;2.00;1.00;;;;;21.37;43.66;101577.22;5071259;28;45402;-62
2023/07/18 02:18:08;;;;;;;;;1.33;1.33;;;;;21.34;43.82;101571.78;5070867;28;46330;-62
2023/07/18 02:20:33;;;;;;;;;5.00;3.67;;;;;21.20;43.90;101550.13;5071328;28;45787;-62
2023/07/18 02:23:00;;;;;;;;;0.67;0.67;;;;;21.31;43.76;101563.66;5070601;28;45658;-60
2023/07/18 02:25:26;;;;;;;;;1.00;1.00;;;;;21.33;43.88;101556.38;5054188;28;45397;-62
2023/07/18 02:27:51;;;;;;;;;15.33;12.33;;;;;21.26;43.83;101546.47;5066495;28;45441;-62
2023/07/18 02:30:16;;;;;;;;;1.00;0.67;;;;;21.32;43.85;101560.91;5072832;28;46061;-63
2023/07/18 02:32:43;;;;;;;;;2.00;0.67;;;;;21.27;43.90;101553.72;5076873;28;45301;-62
2023/07/18 02:35:09;;;;;;;;;2.00;1.00;;;;;21.22;43.97;101536.50;5075392;28;45542;-63
2023/07/18 02:37:35;;;;;;;;;1.00;1.00;;;;;21.29;43.79;101546.44;5058499;28;45255;-62
2023/07/18 02:40:08;;;;;;;;;2.00;2.00;;;;;21.24;44.02;101545.56;5075627;28;45883;-61
2023/07/18 02:42:33;;;;;;;;;0.67;0.67;;;;;21.14;43.96;101533.84;5076418;28;45409;-61
2023/07/18 02:44:59;;;;;;;;;2.33;1.00;;;;;21.20;43.86;101543.75;5057017;28;45538;-63
2023/07/18 02:47:24;;;;;;;;;1.00;1.00;;;;;21.19;43.85;101544.69;5076583;28;45557;-62
2023/07/18 02:49:50;;;;;;;;;2.00;2.00;;;;;21.13;43.87;101543.78;5076441;28;46217;-62
2023/07/18 02:52:15;;;;;;;;;2.33;1.00;;;;;21.16;43.77;101548.31;5076219;28;46134;-62
2023/07/18 02:54:41;;;;;;;;;0.00;0.00;;;;;21.15;43.80;101531.13;5076898;28;45732;-63
2023/07/18 02:57:07;;;;;;;;;3.67;1.00;;;;;21.12;43.69;101531.13;5076916;28;45447;-64
2023/07/18 02:59:32;;;;;;;;;2.00;1.00;;;;;21.09;43.84;101549.25;5076444;28;46835;-63
2023/07/18 03:01:58;;;;;;;;;1.00;1.00;;;;;21.09;43.95;101528.41;5075208;28;45558;-62
2023/07/18 03:04:26;;;;;;;;;2.00;1.00;;;;;21.09;43.67;101531.13;5071663;28;45492;-64
2023/07/18 03:06:52;;;;;;;;;1.00;1.00;;;;;21.10;44.14;101523.88;5074396;27;45644;-67
2023/07/18 03:09:19;;;;;;;;;0.00;0.00;;;;;21.08;44.21;101521.16;5059686;28;46342;-64
2023/07/18 03:11:44;;;;;;;;;4.67;3.67;;;;;21.07;44.14;101513.03;5077725;28;45589;-61
2023/07/18 03:14:11;;;;;;;;;2.00;0.67;;;;;20.99;44.18;101502.22;5077812;28;45264;-62
2023/07/18 03:16:37;;;;;;;;;1.00;1.00;;;;;21.02;43.91;101507.63;5054609;28;45533;-62
2023/07/18 03:19:02;;;;;;;;;2.00;1.00;;;;;21.05;44.16;101515.78;5075520;28;46119;-63
2023/07/18 03:21:28;;;;;;;;;1.00;1.00;;;;;20.99;44.08;101502.22;5075302;28;51797;-62
2023/07/18 03:23:56;;;;;;;;;1.00;1.00;;;;;21.03;43.79;101503.09;5075127;28;45492;-64
2023/07/18 03:26:21;;;;;;;;;2.67;1.00;;;;;21.03;43.95;101508.53;5076626;28;45415;-64
2023/07/18 03:28:47;;;;;;;;;3.67;1.00;;;;;21.00;43.93;101514.88;5076439;28;46703;-62
2023/07/18 03:31:12;;;;;;;;;2.00;1.67;;;;;20.88;43.74;101491.38;5053226;28;45654;-63
2023/07/18 03:33:37;;;;;;;;;1.00;1.00;;;;;20.96;44.22;101510.38;5072765;28;45529;-62
2023/07/18 03:36:05;;;;;;;;;1.00;1.00;;;;;20.89;44.06;101511.31;5077873;28;46620;-66
2023/07/18 03:38:31;;;;;;;;;3.00;1.33;;;;;20.84;44.39;101503.19;5077790;28;46134;-63
2023/07/18 03:40:57;;;;;;;;;1.33;1.33;;;;;20.87;44.29;101515.84;5075427;27;45555;-61
2023/07/18 03:43:23;;;;;;;;;1.67;1.33;;;;;20.34;44.28;101425.50;5075498;28;45549;-62
2023/07/18 03:45:49;;;;;;;;;0.00;0.00;;;;;20.85;44.20;101504.97;5072598;28;45467;-63
2023/07/18 03:48:14;;;;;;;;;3.00;1.33;;;;;20.74;44.41;101486.03;5074822;28;46112;-63
2023/07/18 03:50:40;;;;;;;;;3.00;1.00;;;;;20.82;44.10;101501.38;5076484;28;45612;-66
2023/07/18 03:53:05;;;;;;;;;4.67;1.67;;;;;20.78;44.27;101495.06;5071746;28;45535;-61
2023/07/18 03:55:31;;;;;;;;;2.00;2.00;;;;;20.85;43.97;101498.66;5070838;28;45578;-62
2023/07/18 03:57:56;;;;;;;;;2.00;1.00;;;;;20.87;44.08;101491.38;5069494;27;46793;-63
2023/07/18 04:00:22;;;;;;;;;4.33;3.00;;;;;20.82;44.01;101496.81;5054489;28;54832;-66
2023/07/18 04:02:48;;;;;;;;;2.00;2.00;;;;;20.74;44.25;101482.38;5057735;28;45539;-63
2023/07/18 04:05:18;;;;;;;;;1.00;1.00;;;;;20.80;44.37;101490.50;5047794;28;45377;-65
2023/07/18 04:07:44;;;;;;;;;1.00;1.00;;;;;20.75;44.29;101492.34;5069013;28;46376;-61
2023/07/18 04:10:13;;;;;;;;;3.67;1.00;;;;;20.72;44.19;101487.84;5068366;28;45584;-62
2023/07/18 04:12:40;;;;;;;;;1.00;1.00;;;;;20.70;44.17;101488.75;5075430;28;45421;-64
2023/07/18 04:15:07;;;;;;;;;2.33;2.33;;;;;20.64;44.15;101476.13;5069267;28;45365;-62
2023/07/18 04:17:32;;;;;;;;;2.00;1.00;;;;;20.58;44.15;101466.13;5053250;28;46415;-67
2023/07/18 04:20:01;;;;;;;;;2.67;1.00;;;;;20.70;44.16;101484.22;5075135;28;45540;-64
2023/07/18 04:22:29;;;;;;;;;1.00;1.00;;;;;20.70;44.27;101478.78;5075480;28;45449;-65
2023/07/18 04:24:55;;;;;;;;;2.33;2.33;;;;;20.67;44.21;101477.91;5075344;28;45424;-61
2023/07/18 04:27:21;;;;;;;;;2.33;2.33;;;;;20.62;44.41;101477.88;5075610;28;46015;-63
2023/07/18 04:29:47;;;;;;;;;1.00;1.00;;;;;20.65;44.50;101471.56;5075902;28;45534;-63
2023/07/18 04:32:13;;;;;;;;;2.00;2.00;;;;;20.65;44.33;101468.84;5075101;28;45620;-63
2023/07/18 04:34:38;;;;;;;;;1.33;0.00;;;;;20.58;44.48;101457.09;5075444;28;45266;-64
2023/07/18 04:37:03;;;;;;;;;1.67;1.00;;;;;20.53;44.32;101450.78;5076347;28;46117;-67
2023/07/18 04:39:30;;;;;;;;;1.00;1.00;;;;;20.58;44.48;101463.41;5075147;28;45515;-66
2023/07/18 04:41:56;;;;;;;;;3.67;2.00;;;;;20.53;44.50;101448.06;5075248;28;45478;-63
2023/07/18 04:44:22;;;;;;;;;0.33;0.33;;;;;20.52;44.46;101451.66;5054832;28;45778;-69
2023/07/18 04:46:48;;;;;;;;;2.00;2.00;;;;;20.54;44.30;101457.97;5053270;28;46012;-63
2023/07/18 04:49:13;;;;;;;;;2.00;2.00;;;;;20.52;44.58;101444.41;5074296;28;45343;-68
2023/07/18 04:51:39;;;;;;;;;3.33;2.00;;;;;20.54;44.30;101448.06;5074634;28;45546;-62
2023/07/18 04:54:04;;;;;;;;;2.33;1.00;;;;;20.54;44.49;101448.06;5072368;28;45746;-63
2023/07/18 04:56:29;;;;;;;;;2.00;2.00;;;;;20.54;43.80;101445.34;5075407;28;46491;-63
2023/07/18 04:58:55;;;;;;;;;3.33;2.00;;;;;20.52;44.24;101435.38;5074161;28;60194;-62
2023/07/18 05:01:20;;;;;;;;;2.33;2.33;;;;;20.51;44.48;101445.34;5074430;28;45398;-62
2023/07/18 05:03:45;;;;;;;;;2.67;1.67;;;;;20.52;44.48;101433.56;5070146;28;45500;-61
2023/07/18 05:06:11;;;;;;;;;3.00;2.00;;;;;20.57;43.98;101436.25;5056450;28;45998;-65
2023/07/18 05:08:37;;;;;;;;;2.00;1.00;;;;;20.52;44.02;101432.66;5072864;28;45632;-66
2023/07/18 05:11:02;;;;;;;;;1.33;1.33;;;;;20.50;44.34;101429.94;5074626;28;45556;-62
2023/07/18 05:13:28;;;;;;;;;10.00;8.00;;;;;20.53;44.20;101419.09;5068605;28;45460;-66
2023/07/18 05:15:53;;;;;;;;;2.67;2.67;;;;;20.57;44.30;101407.31;5055206;28;48119;-67
2023/07/18 05:18:19;;;;;;;;;8.67;8.67;;;;;20.57;44.38;101406.41;5073462;28;55977;-63
2023/07/18 05:20:44;;;;;;;;;3.00;1.67;;;;;20.59;43.91;101412.72;5074192;28;45855;-64
2023/07/18 05:23:09;;;;;;;;;3.00;3.00;;;;;20.61;44.09;101408.22;5053579;28;45577;-63
2023/07/18 05:25:36;;;;;;;;;1.00;1.00;;;;;20.58;43.51;101419.97;5071807;28;46301;-63
2023/07/18 05:28:02;;;;;;;;;5.33;2.33;;;;;20.67;43.69;101427.19;5072267;28;45900;-62
2023/07/18 05:30:27;;;;;;;;;2.67;2.33;;;;;20.67;43.67;101429.03;5068405;28;45427;-63
2023/07/18 05:32:54;;;;;;;;;4.67;2.00;;;;;20.72;43.44;101428.09;5071955;28;45565;-61
2023/07/18 05:35:19;;;;;;;;;1.00;1.00;;;;;20.61;43.20;101411.81;5072431;28;45681;-67
2023/07/18 05:37:45;;;;;;;;;3.00;2.00;;;;;20.67;43.23;101423.59;5054772;28;45472;-68
2023/07/18 05:40:12;;;;;;;;;1.67;1.00;;;;;20.66;43.28;101417.25;5071263;28;45405;-64
2023/07/18 05:42:41;;;;;;;;;1.00;1.00;;;;;20.69;43.12;101419.03;5072095;28;45471;-66
2023/07/18 05:45:08;;;;;;;;;6.00;3.33;;;;;20.66;43.14;101417.25;5072790;28;45432;-66
2023/07/18 05:47:34;;;;;;;;;6.33;2.33;;;;;20.74;43.10;101419.91;5071439;28;45341;-64
2023/07/18 05:50:00;;;;;;;;;1.00;1.00;;;;;20.74;42.82;101425.34;5072418;28;45580;-62
2023/07/18 05:52:26;;;;;;;;;1.00;1.00;;;;;20.80;42.83;101433.47;5047875;28;45421;-61
2023/07/18 05:54:52;;;;;;;;;2.33;1.33;;;;;20.73;42.58;101424.47;5053809;28;47259;-64
2023/07/18 05:57:17;;;;;;;;;3.00;2.00;;;;;20.78;42.88;101436.19;5055357;28;45428;-64
2023/07/18 05:59:42;;;;;;;;;3.33;2.00;;;;;20.68;42.64;101410.00;5074194;28;45601;-64
2023/07/18 06:02:08;;;;;;;;;1.67;1.67;;;;;20.83;42.42;101429.84;5055251;28;45628;-63
2023/07/18 06:04:36;;;;;;;;;0.67;0.67;;;;;20.89;42.42;101433.44;5075108;28;45468;-62
2023/07/18 06:07:02;;;;;;;;;2.00;1.33;;;;;20.91;41.88;101436.16;5075042;28;45542;-66
2023/07/18 06:09:27;;;;;;;;;63.00;51.50;;;;;20.94;42.18;101433.44;5058460;28;45322;-61
2023/07/18 06:11:53;;;;;;;;;4.00;4.00;;;;;20.96;41.91;101424.34;5075457;28;45448;-61
2023/07/18 06:14:19;;;;;;;;;3.00;2.00;;;;;20.96;41.79;101420.72;5077534;28;46215;-62
2023/07/18 06:16:45;;;;;;;;;2.33;1.67;;;;;21.04;41.50;101429.75;5076541;28;45353;-65
2023/07/18 06:19:12;;;;;;;;;5.33;1.00;;;;;21.04;41.49;101427.03;5072234;28;45583;-63
2023/07/18 06:21:37;;;;;;;;;2.00;1.00;;;;;21.11;41.34;101436.94;5043967;28;45462;-64
2023/07/18 06:24:03;;;;;;;;;1.67;1.00;;;;;21.13;40.75;101429.66;5073058;28;46327;-63
2023/07/18 06:26:28;;;;;;;;;3.33;1.00;;;;;21.12;40.73;101426.97;5075663;28;45502;-65
2023/07/18 06:28:54;;;;;;;;;9.67;9.33;;;;;21.22;40.60;101428.72;5075051;28;45600;-61
2023/07/18 06:31:19;;;;;;;;;5.67;3.00;;;;;21.24;39.97;101428.72;5074125;28;45621;-62
2023/07/18 06:33:45;;;;;;;;;5.00;3.33;;;;;21.31;39.89;101434.06;5071454;28;45601;-62
2023/07/18 06:36:10;;;;;;;;;2.67;2.67;;;;;21.28;39.96;101423.25;5044161;28;45621;-65
2023/07/18 06:38:37;;;;;;;;;3.00;2.00;;;;;21.43;39.98;101430.38;5075214;28;45532;-64
2023/07/18 06:41:03;;;;;;;;;2.00;2.00;;;;;21.66;39.85;101451.06;5075273;28;45473;-64
2023/07/18 06:43:28;;;;;;;;;2.67;2.67;;;;;21.75;39.42;101434.69;5076188;28;45506;-62
2023/07/18 06:45:54;;;;;;;;;2.67;2.67;;;;;21.86;38.99;101449.09;5069070;28;48541;-64
2023/07/18 06:48:19;;;;;;;;;3.00;1.00;;;;;21.91;39.04;101462.66;5070459;27;45732;-63
2023/07/18 06:50:50;;;;;;;;;0.67;0.67;;;;;22.02;37.89;101465.25;5074754;28;45841;-62
2023/07/18 06:53:20;;;;;;;;;3.00;2.00;;;;;22.07;38.27;101447.94;5057377;28;48910;-63
2023/07/18 06:55:49;;;;;;;;;2.00;1.00;;;;;22.12;37.93;101442.47;5076315;28;45668;-67
2023/07/18 06:58:18;;;;;;;;;1.00;1.00;;;;;22.18;37.87;101441.53;5076239;28;45557;-65
2023/07/18 07:00:45;;;;;;;;;1.67;1.33;;;;;22.21;37.85;101445.09;5075509;28;45462;-63
2023/07/18 07:03:11;;;;;;;;;2.00;2.00;;;;;22.30;37.81;101455.03;5049056;28;46266;-63
2023/07/18 07:05:42;;;;;;;;;2.00;2.00;;;;;22.40;37.25;101464.88;5076342;28;45337;-62
2023/07/18 07:08:08;;;;;;;;;1.33;1.00;;;;;22.45;37.61;101465.75;5076655;28;45519;-63
2023/07/18 07:10:39;;;;;;;;;2.00;0.67;;;;;22.51;37.45;101466.59;5076774;28;45495;-63
2023/07/18 07:13:04;;;;;;;;;1.00;1.00;;;;;22.56;37.68;101473.78;5076459;28;47313;-63
2023/07/18 07:15:30;;;;;;;;;4.00;3.00;;;;;22.61;37.54;101460.13;5074256;28;45534;-61
2023/07/18 07:17:56;;;;;;;;;3.00;2.00;;;;;22.69;37.46;101451.88;5075907;28;45323;-61
2023/07/18 07:20:24;;;;;;;;;3.00;2.00;;;;;22.70;37.58;101431.84;5076513;28;45433;-67
2023/07/18 07:22:52;;;;;;;;;5.67;3.33;;;;;22.70;37.39;101440.03;5058476;28;48201;-64
2023/07/18 07:25:18;;;;;;;;;2.67;1.33;;;;;22.72;37.63;101459.97;5057520;28;45764;-65
2023/07/18 07:27:47;;;;;;;;;1.33;1.33;;;;;22.75;37.55;101473.56;5057842;28;45433;-62
2023/07/18 07:30:17;;;;;;;;;3.33;2.00;;;;;22.75;37.84;101474.47;5075583;28;45601;-62
2023/07/18 07:32:44;;;;;;;;;1.00;1.00;;;;;22.77;37.70;101475.34;5076040;28;45646;-63
2023/07/18 07:35:10;;;;;;;;;3.00;1.00;;;;;22.89;37.42;101466.13;5076268;28;45508;-63
2023/07/18 07:37:36;;;;;;;;;3.67;3.67;;;;;22.98;37.38;101456.91;5072903;27;47828;-63
2023/07/18 07:40:06;;;;;;;;;4.00;2.50;;;;;23.13;37.14;101444.91;5080810;28;45791;-65
2023/07/18 07:42:32;;;;;;;;;1.00;1.00;;;;;23.22;36.50;101420.25;5060860;28;47718;-65
2023/07/18 07:44:57;;;;;;;;;3.67;3.00;;;;;23.31;36.71;101408.28;5076608;28;45623;-64
2023/07/18 07:47:22;;;;;;;;;4.00;2.67;;;;;23.30;36.43;101360.16;5076218;28;45441;-64
2023/07/18 07:49:48;;;;;;;;;3.33;1.00;;;;;23.32;36.62;101334.66;5077412;28;45453;-63
2023/07/18 07:52:13;;;;;;;;;4.00;4.00;;;;;23.32;36.66;101304.66;5077164;28;47706;-62
2023/07/18 07:54:38;;;;;;;;;4.00;2.33;;;;;23.23;37.00;101257.56;5075932;27;45496;-66
2023/07/18 07:57:05;;;;;;;;;5.00;3.33;;;;;23.25;36.92;101275.72;5076949;28;45376;-65
2023/07/18 07:59:30;;;;;;;;;3.33;2.67;;;;;23.29;37.11;101246.56;5076365;28;45411;-62
2023/07/18 08:01:56;;;;;;;;;2.33;2.33;;;;;23.24;37.31;101235.75;5075109;28;46228;-64
2023/07/18 08:04:21;;;;;;;;;1.33;1.33;;;;;23.24;37.45;101240.31;5056886;28;45471;-71
2023/07/18 08:06:46;;;;;;;;;7.00;4.00;;;;;23.34;37.67;101250.09;5076095;28;45600;-66
2023/07/18 08:09:12;;;;;;;;;1.33;1.33;;;;;23.42;37.65;101236.34;5057382;28;45488;-64
2023/07/18 08:11:37;;;;;;;;;4.00;3.00;;;;;23.46;37.34;101230.78;5073029;28;45985;-68
2023/07/18 08:14:03;;;;;;;;;5.00;4.00;;;;;23.48;37.47;101219.84;5073330;28;45535;-64
2023/07/18 08:16:28;;;;;;;;;4.33;3.00;;;;;23.58;37.36;101215.09;5075539;28;45531;-63
2023/07/18 08:18:53;;;;;;;;;3.33;3.33;;;;;23.63;37.35;101207.75;5075401;28;45447;-62
2023/07/18 08:21:19;;;;;;;;;2.67;2.00;;;;;23.63;37.46;101202.28;5075043;28;45399;-65
2023/07/18 08:23:44;;;;;;;;;3.67;3.67;;;;;23.61;37.42;101157.75;5074629;28;46391;-67
2023/07/18 08:26:10;;;;;;;;;4.00;2.67;;;;;23.74;37.39;101175.66;5075421;28;45537;-65
2023/07/18 08:28:35;;;;;;;;;3.67;3.00;;;;;23.87;37.45;101192.69;5074777;28;45266;-66
2023/07/18 08:31:03;;;;;;;;;2.00;2.00;;;;;23.98;37.15;101209.75;5073568;28;45423;-64
2023/07/18 08:33:28;;;;;;;;;6.00;6.00;;;;;24.15;37.14;101227.56;5074536;28;45718;-62
2023/07/18 08:35:54;;;;;;;;;4.67;3.67;;;;;24.26;36.71;101234.59;5075182;28;45721;-64
2023/07/18 08:38:19;;;;;;;;;4.67;3.33;;;;;24.41;36.57;101257.91;5074459;28;45511;-64
2023/07/18 08:40:44;;;;;;;;;1.33;1.33;;;;;24.47;35.83;101263.25;5056145;28;45849;-64
2023/07/18 08:43:14;;;;;;;;;2.33;1.67;;;;;24.55;35.75;101259.41;5074740;28;45542;-65
2023/07/18 08:45:41;;;;;;;;;2.67;2.00;;;;;24.71;35.34;101285.47;5056211;28;45409;-66
2023/07/18 08:48:06;;;;;;;;;4.00;3.00;;;;;24.75;35.06;101298.16;5068884;28;45527;-64
2023/07/18 08:50:35;;;;;;;;;2.00;2.00;;;;;24.69;35.01;101302.88;5074114;28;45419;-63
2023/07/18 08:53:01;;;;;;;;;9.33;6.33;;;;;24.77;35.22;101306.31;5074328;28;45510;-65
2023/07/18 08:55:29;;;;;;;;;3.00;2.33;;;;;24.86;35.37;101310.66;5074550;28;45460;-64
2023/07/18 08:57:55;;;;;;;;;7.67;6.00;;;;;24.96;34.91;101298.56;5074520;28;45559;-66
2023/07/18 09:00:20;;;;;;;;;3.33;3.33;;;;;25.06;34.94;101302.84;5056195;28;46469;-65
2023/07/18 09:02:50;;;;;;;;;6.00;5.00;;;;;25.15;35.17;101290.81;5073607;28;45535;-67
2023/07/18 09:05:36;;;;;;;;;3.33;3.33;;;;;25.23;34.86;101299.72;5073357;28;45432;-64
2023/07/18 09:08:03;;;;;;;;;6.67;5.00;;;;;25.33;34.69;101293.09;5069208;28;45423;-64
2023/07/18 09:10:29;;;;;;;;;2.00;2.00;;;;;25.37;34.11;101289.31;5055159;28;46201;-66
2023/07/18 09:13:03;;;;;;;;;3.33;2.00;;;;;25.43;34.32;101292.84;5055680;28;45479;-63
2023/07/18 09:15:29;;;;;;;;;3.33;2.33;;;;;25.48;33.83;101285.41;5073835;28;45480;-64
2023/07/18 09:17:57;;;;;;;;;2.33;2.00;;;;;25.50;33.98;101272.59;5074512;28;45257;-65
2023/07/18 09:20:24;;;;;;;;;2.67;1.33;;;;;25.53;33.52;101265.19;5054136;28;46257;-64
2023/07/18 09:22:56;;;;;;;;;3.00;2.00;;;;;25.74;33.39;101292.91;5055582;28;45501;-62
2023/07/18 09:25:21;;;;;;;;;2.00;2.00;;;;;25.79;33.47;101277.25;5073704;28;45512;-65
2023/07/18 09:27:50;;;;;;;;;1.67;1.67;;;;;25.90;33.09;101282.41;5074339;28;45651;-68
2023/07/18 09:30:27;;;;;;;;;4.67;3.00;;;;;25.89;33.37;101265.09;5073114;28;47159;-67
2023/07/18 09:32:53;;;;;;;;;2.00;2.00;;;;;26.08;32.76;101272.78;5055330;28;45489;-63
2023/07/18 09:35:19;;;;;;;;;3.67;3.67;;;;;26.14;32.79;101269.88;5073321;28;45611;-66
2023/07/18 09:37:46;;;;;;;;;3.00;2.67;;;;;26.27;32.75;101270.41;5051503;28;45401;-65
2023/07/18 09:40:14;;;;;;;;;4.00;3.67;;;;;26.36;32.20;101270.09;5072622;28;46479;-63
2023/07/18 09:42:45;;;;;;;;;4.00;3.00;;;;;26.39;32.09;101260.91;5073331;28;45437;-67
2023/07/18 09:45:15;;;;;;;;;3.00;2.00;;;;;26.38;31.76;101254.53;5073318;28;45643;-65
2023/07/18 09:47:41;;;;;;;;;5.00;3.33;;;;;26.39;31.71;101255.41;5073840;28;45417;-65
2023/07/18 09:50:08;;;;;;;;;3.67;3.67;;;;;26.36;31.85;101239.06;5073239;28;46492;-68
2023/07/18 09:52:41;;;;;;;;;4.00;4.00;;;;;26.46;31.87;101246.03;5054483;28;45452;-64
2023/07/18 09:55:09;;;;;;;;;2.67;2.00;;;;;26.63;32.00;101253.75;5055164;28;45485;-64
2023/07/18 09:57:41;;;;;;;;;3.00;2.00;;;;;26.72;31.96;101249.84;5055190;28;45490;-65
2023/07/18 10:00:15;;;;;;;;;16.67;15.00;;;;;26.72;31.79;101233.38;5054313;28;48636;-67
2023/07/18 10:02:41;;;;;;;;;7.67;6.33;;;;;26.86;32.10;101236.56;5073167;28;45488;-66
2023/07/18 10:05:10;;;;;;;;;6.00;3.00;;;;;26.93;31.28;101240.00;5073706;28;45543;-63
2023/07/18 10:07:39;;;;;;;;;3.00;3.00;;;;;26.92;30.61;101238.19;5073159;28;45524;-65
2023/07/18 10:10:10;;;;;;;;;3.00;3.00;;;;;26.97;31.24;101233.44;5073000;27;46872;-72
2023/07/18 10:12:59;;;;;;;;;3.00;3.00;;;;;27.06;31.14;101237.69;5070098;28;45466;-64
2023/07/18 10:15:26;;;;;;;;;6.33;2.33;;;;;27.13;30.58;101222.84;5072834;28;45527;-63
2023/07/18 10:17:51;;;;;;;;;2.00;2.00;;;;;27.16;30.67;101223.63;5073996;28;45499;-64
2023/07/18 10:20:23;;;;;;;;;4.67;3.33;;;;;27.18;30.55;101218.09;5072977;28;46033;-67
2023/07/18 10:22:58;;;;;;;;;5.00;4.00;;;;;27.21;30.54;101216.13;5048847;28;45417;-68
2023/07/18 10:25:29;;;;;;;;;2.33;2.33;;;;;27.29;30.78;101217.69;5072045;28;45436;-66
2023/07/18 10:27:55;;;;;;;;;8.67;8.00;;;;;27.32;30.25;101214.88;5054800;28;45551;-68
2023/07/18 10:30:29;;;;;;;;;2.00;2.00;;;;;27.25;30.31;101188.59;5072209;28;45443;-67
2023/07/18 10:32:57;;;;;;;;;3.00;3.00;;;;;27.29;30.56;101191.22;5053647;28;45610;-68
2023/07/18 10:35:25;;;;;;;;;5.00;3.00;;;;;27.34;30.52;101202.00;5069753;28;45384;-67
2023/07/18 10:38:03;;;;;;;;;2.00;2.00;;;;;27.37;30.28;101197.31;5072726;28;45480;-64
2023/07/18 10:40:43;;;;;;;;;1.67;1.67;;;;;27.39;29.91;101191.78;5071413;28;45781;-65
2023/07/18 10:43:20;;;;;;;;;5.00;2.67;;;;;27.36;29.76;101184.53;5071608;28;45493;-68
2023/07/18 10:45:46;;;;;;;;;2.00;2.00;;;;;27.39;29.96;101181.69;5072088;28;45429;-66
2023/07/18 10:48:13;;;;;;;;;4.67;2.33;;;;;27.36;30.23;101170.81;5065929;28;45381;-69
2023/07/18 10:50:39;;;;;;;;;6.00;1.00;;;;;27.37;29.72;101167.13;5073152;28;47077;-66
2023/07/18 10:53:04;;;;;;;;;3.67;2.00;;;;;27.32;29.89;101168.22;5075882;28;45436;-70
2023/07/18 10:55:29;;;;;;;;;2.00;2.00;;;;;27.26;29.96;101163.84;5058066;28;45278;-66
2023/07/18 10:57:55;;;;;;;;;2.00;2.00;;;;;27.26;30.01;101169.34;5057812;28;45364;-66
2023/07/18 11:00:24;;;;;;;;;2.67;1.00;;;;;27.31;30.47;101172.84;5075887;28;46177;-66
2023/07/18 11:02:49;;;;;;;;;2.67;2.00;;;;;27.37;29.70;101164.38;5075242;28;45623;-65
2023/07/18 11:05:15;;;;;;;;;3.00;1.67;;;;;27.22;29.91;101134.72;5075317;28;45377;-63
2023/07/18 11:07:43;;;;;;;;;3.00;3.00;;;;;27.33;30.04;101159.94;5075381;28;45538;-69
2023/07/18 11:10:10;;;;;;;;;1.00;1.00;;;;;27.31;29.94;101164.59;5075941;28;46281;-67
2023/07/18 11:12:37;;;;;;;;;2.67;1.67;;;;;27.24;30.33;101156.59;5057248;28;45493;-65
2023/07/18 11:15:06;;;;;;;;;3.33;2.00;;;;;27.24;29.88;101152.03;5075741;28;45503;-65
2023/07/18 11:17:31;;;;;;;;;3.00;3.00;;;;;27.20;30.29;101136.63;5073209;28;45551;-65
2023/07/18 11:20:00;;;;;;;;;2.67;2.67;;;;;27.35;30.25;101151.66;5075225;28;45443;-72
2023/07/18 11:22:27;;;;;;;;;2.67;2.00;;;;;27.40;30.14;101149.63;5072527;28;45437;-65